createdAt,value
2018-01-10T00:00:51.635Z,16.58
2018-01-10T00:03:19.443Z,15.57
2018-01-10T00:08:40.059Z,15.63
2018-01-10T00:11:07.731Z,16.55
2018-01-10T00:13:35.340Z,17.20
2018-01-10T00:16:03.095Z,14.60
2018-01-10T00:18:30.700Z,16.95
2018-01-10T00:20:58.298Z,16.65
2018-01-10T00:23:25.869Z,16.85
2018-01-10T00:25:53.572Z,17.87
2018-01-10T00:28:21.080Z,18.15
2018-01-10T00:30:48.588Z,16.37
2018-01-10T00:33:16.162Z,18.30
2018-01-10T00:35:43.682Z,18.73
2018-01-10T00:38:11.393Z,18.70
2018-01-10T00:40:39.166Z,16.92
2018-01-10T00:43:06.853Z,18.73
2018-01-10T00:45:34.527Z,16.52
2018-01-10T00:48:02.258Z,17.15
2018-01-10T00:50:29.843Z,17.75
2018-01-10T00:52:57.374Z,18.10
2018-01-10T00:55:24.959Z,19.02
2018-01-10T00:57:52.526Z,17.12
2018-01-10T01:00:20.125Z,17.15
2018-01-10T01:02:47.723Z,17.77
2018-01-10T01:05:15.275Z,18.77
2018-01-10T01:07:42.914Z,18.10
2018-01-10T01:10:10.527Z,18.30
2018-01-10T01:12:38.097Z,18.75
2018-01-10T01:15:05.772Z,17.67
2018-01-10T01:17:33.412Z,19.02
2018-01-10T01:20:01.004Z,18.45
2018-01-10T01:22:28.522Z,18.62
2018-01-10T01:24:56.240Z,17.37
2018-01-10T01:27:23.875Z,17.35
2018-01-10T01:29:51.527Z,17.95
2018-01-10T01:32:19.184Z,20.83
2018-01-10T01:34:46.781Z,19.85
2018-01-10T01:37:15.397Z,18.33
2018-01-10T01:39:43.060Z,18.80
2018-01-10T01:42:10.669Z,17.92
2018-01-10T01:44:38.286Z,18.50
2018-01-10T01:47:06.060Z,19.25
2018-01-10T01:49:33.829Z,19.05
2018-01-10T01:52:01.675Z,17.00
2018-01-10T01:54:30.829Z,18.23
2018-01-10T01:56:58.492Z,18.60
2018-01-10T01:59:26.189Z,17.62
2018-01-10T02:01:53.914Z,17.20
2018-01-10T02:04:21.531Z,19.12
2018-01-10T02:06:49.205Z,18.95
2018-01-10T02:09:16.854Z,17.23
2018-01-10T02:11:44.372Z,19.58
2018-01-10T02:14:11.924Z,16.25
2018-01-10T02:16:39.528Z,17.50
2018-01-10T02:19:07.893Z,17.77
2018-01-10T02:21:35.727Z,18.55
2018-01-10T02:24:03.412Z,17.30
2018-01-10T02:26:31.140Z,17.20
2018-01-10T02:31:30.592Z,17.40
2018-01-10T02:33:58.249Z,18.55
2018-01-10T02:36:26.631Z,18.55
2018-01-10T02:38:54.351Z,16.60
2018-01-10T02:41:22.029Z,18.85
2018-01-10T02:43:49.615Z,18.45
2018-01-10T02:46:17.353Z,16.52
2018-01-10T02:48:45.155Z,16.15
2018-01-10T02:51:12.706Z,18.77
2018-01-10T02:53:40.444Z,16.73
2018-01-10T02:56:08.146Z,18.30
2018-01-10T02:58:35.836Z,16.73
2018-01-10T03:01:05.635Z,16.48
2018-01-10T03:03:33.748Z,16.62
2018-01-10T03:06:04.670Z,18.20
2018-01-10T03:08:32.802Z,16.52
2018-01-10T03:11:00.542Z,18.65
2018-01-10T03:13:28.869Z,16.05
2018-01-10T03:15:56.426Z,16.73
2018-01-10T03:18:24.176Z,16.50
2018-01-10T03:20:51.750Z,17.20
2018-01-10T03:23:19.492Z,16.75
2018-01-10T03:25:47.123Z,18.73
2018-01-10T03:28:14.682Z,17.27
2018-01-10T03:30:42.236Z,17.33
2018-01-10T03:33:09.792Z,17.37
2018-01-10T03:35:37.416Z,16.95
2018-01-10T03:38:05.008Z,16.30
2018-01-10T03:40:32.699Z,17.70
2018-01-10T03:43:00.317Z,16.85
2018-01-10T03:45:27.815Z,17.70
2018-01-10T03:47:55.379Z,17.90
2018-01-10T03:50:23.660Z,16.90
2018-01-10T03:52:51.235Z,16.75
2018-01-10T03:55:18.801Z,18.50
2018-01-10T03:57:46.493Z,17.65
2018-01-10T04:00:14.101Z,16.83
2018-01-10T04:02:41.697Z,16.98
2018-01-10T04:05:09.352Z,16.75
2018-01-10T04:07:36.941Z,17.87
2018-01-10T04:10:04.762Z,17.00
2018-01-10T04:12:32.299Z,17.73
2018-01-10T04:14:59.916Z,18.15
2018-01-10T04:17:27.504Z,17.77
2018-01-10T04:19:55.298Z,19.77
2018-01-10T04:22:22.968Z,19.08
2018-01-10T04:24:51.275Z,19.05
2018-01-10T04:27:18.955Z,20.25
2018-01-10T04:29:47.416Z,17.37
2018-01-10T04:32:15.075Z,19.33
2018-01-10T04:34:42.695Z,20.58
2018-01-10T04:37:10.390Z,18.48
2018-01-10T04:39:38.009Z,19.73
2018-01-10T04:42:05.644Z,18.80
2018-01-10T04:44:33.189Z,19.45
2018-01-10T04:47:00.806Z,21.35
2018-01-10T04:49:28.613Z,19.10
2018-01-10T04:51:56.482Z,19.37
2018-01-10T04:54:25.193Z,19.85
2018-01-10T04:56:53.943Z,20.85
2018-01-10T04:59:22.156Z,20.50
2018-01-10T05:01:52.446Z,21.67
2018-01-10T05:04:22.348Z,22.55
2018-01-10T05:09:46.456Z,18.45
2018-01-10T05:12:14.275Z,19.37
2018-01-10T05:14:42.824Z,19.67
2018-01-10T05:17:10.950Z,20.25
2018-01-10T05:19:39.151Z,18.75
2018-01-10T05:22:07.250Z,20.15
2018-01-10T05:24:35.888Z,20.52
2018-01-10T05:27:03.840Z,20.12
2018-01-10T05:29:31.632Z,19.35
2018-01-10T05:31:59.626Z,19.48
2018-01-10T05:34:27.578Z,20.50
2018-01-10T05:36:55.164Z,21.85
2018-01-10T05:39:22.745Z,19.48
2018-01-10T05:41:50.482Z,22.08
2018-01-10T05:44:18.094Z,19.25
2018-01-10T05:46:45.616Z,20.62
2018-01-10T05:49:13.223Z,22.30
2018-01-10T05:51:41.076Z,20.02
2018-01-10T05:54:08.847Z,19.83
2018-01-10T05:56:36.547Z,19.77
2018-01-10T05:59:04.306Z,22.02
2018-01-10T06:01:33.059Z,21.98
2018-01-10T06:04:01.518Z,20.35
2018-01-10T06:06:29.650Z,23.60
2018-01-10T06:09:00.381Z,20.42
2018-01-10T06:11:34.899Z,21.00
2018-01-10T06:14:04.352Z,19.80
2018-01-10T06:16:31.946Z,22.17
2018-01-10T06:19:00.842Z,19.20
2018-01-10T06:24:08.312Z,22.58
2018-01-10T06:26:36.071Z,21.87
2018-01-10T06:29:03.967Z,22.58
2018-01-10T06:31:33.998Z,22.80
2018-01-10T06:34:01.535Z,23.85
2018-01-10T06:36:29.187Z,21.50
2018-01-10T06:38:56.703Z,21.27
2018-01-10T06:41:24.236Z,23.73
2018-01-10T06:43:51.890Z,22.90
2018-01-10T06:46:19.428Z,24.10
2018-01-10T06:48:46.911Z,23.30
2018-01-10T06:51:14.590Z,22.60
2018-01-10T06:53:42.128Z,23.58
2018-01-10T06:56:09.623Z,24.50
2018-01-10T06:58:37.130Z,25.05
2018-01-10T07:01:04.630Z,25.42
2018-01-10T07:03:33.461Z,26.58
2018-01-10T07:06:01.066Z,24.95
2018-01-10T07:08:28.555Z,24.30
2018-01-10T07:10:56.304Z,23.80
2018-01-10T07:13:23.823Z,24.00
2018-01-10T07:15:51.341Z,23.50
2018-01-10T07:18:19.637Z,26.77
2018-01-10T07:20:47.186Z,24.83
2018-01-10T07:23:14.827Z,22.62
2018-01-10T07:25:42.500Z,25.17
2018-01-10T07:28:10.067Z,23.60
2018-01-10T07:30:37.706Z,25.98
2018-01-10T07:33:05.341Z,23.92
2018-01-10T07:35:33.029Z,24.63
2018-01-10T07:38:00.578Z,24.02
2018-01-10T07:40:28.249Z,23.67
2018-01-10T07:42:55.772Z,25.12
2018-01-10T07:45:23.463Z,25.83
2018-01-10T07:47:51.093Z,24.00
2018-01-10T07:50:18.888Z,23.55
2018-01-10T07:52:46.366Z,25.65
2018-01-10T07:55:13.887Z,25.92
2018-01-10T07:57:41.363Z,26.92
2018-01-10T08:00:08.892Z,25.65
2018-01-10T08:02:36.825Z,25.90
2018-01-10T08:05:04.318Z,25.27
2018-01-10T08:07:31.856Z,28.20
2018-01-10T08:09:59.353Z,27.42
2018-01-10T08:12:26.835Z,25.55
2018-01-10T08:14:54.352Z,25.12
2018-01-10T08:17:21.813Z,24.77
2018-01-10T08:19:49.271Z,24.70
2018-01-10T08:22:16.737Z,25.70
2018-01-10T08:24:44.189Z,25.15
2018-01-10T08:27:11.649Z,26.27
2018-01-10T08:29:39.119Z,26.00
2018-01-10T08:32:06.556Z,26.23
2018-01-10T08:34:34.014Z,25.95
2018-01-10T08:37:01.506Z,25.40
2018-01-10T08:39:28.957Z,26.17
2018-01-10T08:41:56.422Z,24.98
2018-01-10T08:44:23.873Z,25.30
2018-01-10T08:46:51.336Z,26.33
2018-01-10T08:49:19.560Z,26.58
2018-01-10T08:51:47.246Z,25.58
2018-01-10T08:54:14.705Z,26.98
2018-01-10T08:56:42.152Z,26.00
2018-01-10T08:59:09.632Z,26.50
2018-01-10T09:01:37.063Z,26.80
2018-01-10T09:04:04.536Z,24.50
2018-01-10T09:06:31.989Z,25.20
2018-01-10T09:08:59.437Z,25.48
2018-01-10T09:11:26.880Z,26.20
2018-01-10T09:13:54.341Z,23.90
2018-01-10T09:16:21.810Z,26.25
2018-01-10T09:18:49.274Z,25.33
2018-01-10T09:21:16.734Z,24.77
2018-01-10T09:23:44.235Z,24.45
2018-01-10T09:26:11.689Z,25.65
2018-01-10T09:28:39.144Z,24.23
2018-01-10T09:31:06.599Z,27.48
2018-01-10T09:33:34.052Z,26.42
2018-01-10T09:36:01.515Z,24.55
2018-01-10T09:38:28.976Z,25.85
2018-01-10T09:40:56.424Z,25.33
2018-01-10T09:43:24.545Z,24.05
2018-01-10T09:45:52.007Z,24.30
2018-01-10T09:48:19.466Z,22.98
2018-01-10T09:50:46.930Z,24.95
2018-01-10T09:53:14.389Z,24.05
2018-01-10T09:55:41.844Z,24.85
2018-01-10T09:58:09.289Z,25.35
2018-01-10T10:00:36.733Z,27.08
2018-01-10T10:03:04.181Z,24.87
2018-01-10T10:05:31.629Z,24.73
2018-01-10T10:07:59.090Z,23.80
2018-01-10T10:10:26.536Z,24.83
2018-01-10T10:12:53.988Z,24.37
2018-01-10T10:15:21.449Z,24.30
2018-01-10T10:17:48.884Z,24.33
2018-01-10T10:20:16.334Z,26.42
2018-01-10T10:22:43.795Z,25.80
2018-01-10T10:25:12.017Z,26.42
2018-01-10T10:27:39.490Z,26.08
2018-01-10T10:30:06.971Z,27.23
2018-01-10T10:32:34.439Z,27.42
2018-01-10T10:35:02.665Z,26.83
2018-01-10T10:37:30.120Z,28.27
2018-01-10T10:39:57.581Z,26.15
2018-01-10T10:42:25.029Z,25.15
2018-01-10T10:44:52.516Z,27.10
2018-01-10T10:47:19.979Z,25.27
2018-01-10T10:49:47.425Z,25.60
2018-01-10T10:52:14.898Z,26.10
2018-01-10T10:54:42.345Z,28.08
2018-01-10T10:57:09.928Z,24.40
2018-01-10T10:59:38.170Z,27.58
2018-01-10T11:02:05.620Z,26.42
2018-01-10T11:04:33.401Z,27.30
2018-01-10T11:07:00.869Z,25.48
2018-01-10T11:09:28.314Z,28.02
2018-01-10T11:11:55.773Z,26.85
2018-01-10T11:14:23.236Z,27.98
2018-01-10T11:16:50.708Z,26.05
2018-01-10T11:19:18.936Z,26.35
2018-01-10T11:21:46.393Z,27.70
2018-01-10T11:24:13.837Z,26.25
2018-01-10T11:26:41.297Z,26.37
2018-01-10T11:29:08.751Z,28.40
2018-01-10T11:31:36.202Z,26.42
2018-01-10T11:34:03.655Z,28.40
2018-01-10T11:36:31.107Z,26.65
2018-01-10T11:38:58.553Z,24.98
2018-01-10T11:41:26.005Z,26.05
2018-01-10T11:43:53.470Z,28.65
2018-01-10T11:46:20.918Z,26.58
2018-01-10T11:48:48.373Z,24.70
2018-01-10T11:51:15.841Z,26.35
2018-01-10T11:53:43.295Z,26.58
2018-01-10T11:56:10.746Z,24.48
2018-01-10T11:58:38.210Z,24.80
2018-01-10T12:01:05.669Z,26.20
2018-01-10T12:03:33.130Z,27.00
2018-01-10T12:06:00.604Z,26.17
2018-01-10T12:08:28.060Z,24.77
2018-01-10T12:10:55.508Z,24.35
2018-01-10T12:13:22.966Z,25.33
2018-01-10T12:15:50.418Z,26.00
2018-01-10T12:18:17.873Z,24.27
2018-01-10T12:20:45.337Z,24.42
2018-01-10T12:23:12.796Z,25.83
2018-01-10T12:25:40.247Z,23.60
2018-01-10T12:28:07.705Z,24.42
2018-01-10T12:30:35.221Z,23.40
2018-01-10T12:33:03.435Z,24.65
2018-01-10T12:35:30.889Z,24.52
2018-01-10T12:37:58.344Z,25.83
2018-01-10T12:40:25.801Z,25.25
2018-01-10T12:42:53.241Z,23.73
2018-01-10T12:45:20.698Z,23.42
2018-01-10T12:47:48.164Z,25.50
2018-01-10T12:50:15.615Z,24.75
2018-01-10T12:52:43.068Z,25.55
2018-01-10T12:55:10.533Z,25.08
2018-01-10T12:57:37.988Z,23.23
2018-01-10T13:00:05.448Z,23.45
2018-01-10T13:02:32.936Z,24.92
2018-01-10T13:05:00.384Z,24.98
2018-01-10T13:07:27.857Z,24.20
2018-01-10T13:09:55.329Z,24.08
2018-01-10T13:12:27.380Z,22.70
2018-01-10T13:14:54.869Z,23.40
2018-01-10T13:17:22.337Z,25.92
2018-01-10T13:19:50.557Z,24.83
2018-01-10T13:22:18.019Z,24.92
2018-01-10T13:24:45.505Z,24.55
2018-01-10T13:27:12.952Z,24.75
2018-01-10T13:29:40.407Z,24.58
2018-01-10T13:32:07.862Z,23.60
2018-01-10T13:34:35.308Z,24.58
2018-01-10T13:37:02.761Z,22.67
2018-01-10T13:39:30.435Z,23.70
2018-01-10T13:41:57.900Z,25.67
2018-01-10T13:44:25.349Z,25.45
2018-01-10T13:46:52.810Z,24.40
2018-01-10T13:49:20.258Z,23.85
2018-01-10T13:51:47.984Z,23.20
2018-01-10T13:54:15.450Z,25.08
2018-01-10T13:56:42.886Z,23.30
2018-01-10T13:59:10.461Z,25.02
2018-01-10T14:01:37.932Z,23.90
2018-01-10T14:04:05.393Z,23.30
2018-01-10T14:06:32.848Z,23.17
2018-01-10T14:09:00.314Z,25.23
2018-01-10T14:11:27.782Z,23.35
2018-01-10T14:13:55.246Z,23.33
2018-01-10T14:16:22.708Z,24.05
2018-01-10T14:18:50.174Z,25.45
2018-01-10T14:21:18.425Z,23.35
2018-01-10T14:23:45.878Z,23.50
2018-01-10T14:26:13.343Z,23.73
2018-01-10T14:28:40.818Z,23.92
2018-01-10T14:31:08.284Z,22.27
2018-01-10T14:33:35.737Z,25.30
2018-01-10T14:36:03.204Z,24.20
2018-01-10T14:38:31.454Z,25.30
2018-01-10T14:40:58.883Z,25.27
2018-01-10T14:43:26.355Z,26.35
2018-01-10T14:45:53.830Z,23.60
2018-01-10T14:48:21.294Z,26.17
2018-01-10T14:50:48.753Z,25.17
2018-01-10T14:53:16.201Z,26.37
2018-01-10T14:55:43.656Z,25.45
2018-01-10T14:58:11.109Z,25.75
2018-01-10T15:00:38.576Z,23.50
2018-01-10T15:03:06.031Z,23.95
2018-01-10T15:05:33.503Z,23.90
2018-01-10T15:08:00.965Z,27.00
2018-01-10T15:10:29.205Z,24.87
2018-01-10T15:12:56.670Z,25.80
2018-01-10T15:15:24.154Z,24.77
2018-01-10T15:17:52.392Z,25.88
2018-01-10T15:20:19.848Z,26.85
2018-01-10T15:22:47.325Z,24.87
2018-01-10T15:25:14.781Z,24.30
2018-01-10T15:27:42.242Z,24.08
2018-01-10T15:30:09.709Z,24.70
2018-01-10T15:32:37.165Z,26.10
2018-01-10T15:35:05.412Z,25.62
2018-01-10T15:37:32.875Z,23.23
2018-01-10T15:40:00.341Z,24.30
2018-01-10T15:42:27.818Z,24.40
2018-01-10T15:44:56.029Z,23.98
2018-01-10T15:47:23.511Z,23.87
2018-01-10T15:49:50.962Z,24.75
2018-01-10T15:52:18.442Z,23.35
2018-01-10T15:54:45.899Z,24.20
2018-01-10T15:57:13.355Z,24.92
2018-01-10T15:59:40.814Z,24.50
2018-01-10T16:02:08.274Z,23.67
2018-01-10T16:04:35.729Z,24.98
2018-01-10T16:07:03.190Z,26.48
2018-01-10T16:09:30.646Z,27.00
2018-01-10T16:11:58.126Z,24.70
2018-01-10T16:14:25.616Z,22.92
2018-01-10T16:16:53.079Z,25.48
2018-01-10T16:19:20.534Z,25.10
2018-01-10T16:21:47.979Z,25.77
2018-01-10T16:24:15.434Z,24.65
2018-01-10T16:26:42.902Z,25.95
2018-01-10T16:29:10.360Z,23.12
2018-01-10T16:31:37.810Z,23.58
2018-01-10T16:34:05.328Z,24.35
2018-01-10T16:36:33.551Z,23.48
2018-01-10T16:39:01.014Z,23.95
2018-01-10T16:41:28.479Z,27.77
2018-01-10T16:43:56.008Z,24.35
2018-01-10T16:46:23.449Z,24.65
2018-01-10T16:48:50.905Z,25.17
2018-01-10T16:51:18.360Z,23.87
2018-01-10T16:53:45.818Z,25.67
2018-01-10T16:56:13.299Z,25.35
2018-01-10T16:58:40.753Z,28.70
2018-01-10T17:01:08.450Z,27.23
2018-01-10T17:03:36.032Z,25.20
2018-01-10T17:06:03.502Z,24.85
2018-01-10T17:08:31.005Z,24.65
2018-01-10T17:11:00.933Z,25.00
2018-01-10T17:13:29.601Z,23.90
2018-01-10T17:15:57.102Z,24.37
2018-01-10T17:18:34.862Z,24.02
2018-01-10T17:21:02.314Z,25.10
2018-01-10T17:23:29.781Z,23.95
2018-01-10T17:25:57.248Z,24.45
2018-01-10T17:28:24.737Z,23.52
2018-01-10T17:30:52.224Z,25.25
2018-01-10T17:33:19.799Z,26.17
2018-01-10T17:35:47.270Z,23.70
2018-01-10T17:38:14.749Z,25.98
2018-01-10T17:40:42.210Z,25.08
2018-01-10T17:43:10.433Z,23.65
2018-01-10T17:45:37.898Z,24.10
2018-01-10T17:48:05.417Z,24.77
2018-01-10T17:50:33.163Z,23.90
2018-01-10T17:53:01.037Z,26.35
2018-01-10T17:55:28.643Z,23.42
2018-01-10T17:57:56.385Z,25.05
2018-01-10T18:00:24.223Z,26.27
2018-01-10T18:02:51.908Z,24.98
2018-01-10T18:05:19.907Z,23.77
2018-01-10T18:07:47.752Z,24.60
2018-01-10T18:10:15.402Z,24.48
2018-01-10T18:15:36.308Z,25.10
2018-01-10T18:18:03.906Z,24.45
2018-01-10T18:20:31.521Z,24.80
2018-01-10T18:22:59.041Z,24.48
2018-01-10T18:25:26.671Z,23.58
2018-01-10T18:27:54.223Z,24.40
2018-01-10T18:30:21.724Z,24.73
2018-01-10T18:32:49.238Z,26.02
2018-01-10T18:35:16.738Z,22.83
2018-01-10T18:37:44.222Z,23.35
2018-01-10T18:40:11.734Z,23.45
2018-01-10T18:42:39.311Z,24.02
2018-01-10T18:45:06.824Z,24.08
2018-01-10T18:47:34.349Z,22.83
2018-01-10T18:50:02.800Z,24.12
2018-01-10T18:52:31.298Z,23.70
2018-01-10T18:54:59.249Z,21.50
2018-01-10T18:57:26.850Z,23.20
2018-01-10T18:59:54.398Z,25.15
2018-01-10T19:02:21.946Z,23.58
2018-01-10T19:04:49.612Z,23.87
2018-01-10T19:07:17.198Z,24.70
2018-01-10T19:09:44.761Z,22.75
2018-01-10T19:12:12.367Z,24.12
2018-01-10T19:14:40.018Z,25.62
2018-01-10T19:17:07.642Z,24.12
2018-01-10T19:19:35.278Z,24.58
2018-01-10T19:22:02.943Z,24.05
2018-01-10T19:24:30.590Z,24.40
2018-01-10T19:26:58.276Z,23.30
2018-01-10T19:29:25.892Z,25.62
2018-01-10T19:31:53.475Z,23.80
2018-01-10T19:34:21.118Z,24.45
2018-01-10T19:36:48.887Z,25.55
2018-01-10T19:39:17.642Z,23.92
2018-01-10T19:41:45.414Z,25.80
2018-01-10T19:44:13.618Z,23.60
2018-01-10T19:46:41.303Z,24.63
2018-01-10T19:49:08.987Z,22.75
2018-01-10T19:51:54.786Z,24.95
2018-01-10T19:54:23.664Z,25.48
2018-01-10T19:56:51.442Z,26.90
2018-01-10T19:59:20.294Z,24.42
2018-01-10T20:01:48.397Z,27.23
2018-01-10T20:04:16.837Z,23.55
2018-01-10T20:06:44.576Z,25.20
2018-01-10T20:09:12.236Z,25.10
2018-01-10T20:11:39.711Z,25.17
2018-01-10T20:14:07.351Z,26.73
2018-01-10T20:16:36.804Z,26.23
2018-01-10T20:19:04.309Z,26.58
2018-01-10T20:21:31.812Z,26.73
2018-01-10T20:23:59.334Z,25.35
2018-01-10T20:26:26.901Z,25.92
2018-01-10T20:28:55.373Z,26.20
2018-01-10T20:31:22.995Z,25.35
2018-01-10T20:33:50.536Z,26.87
2018-01-10T20:36:18.051Z,24.05
2018-01-10T20:38:45.648Z,26.42
2018-01-10T20:41:13.252Z,27.90
2018-01-10T20:43:40.914Z,28.70
2018-01-10T20:46:08.538Z,27.17
2018-01-10T20:48:36.811Z,27.58
2018-01-10T20:51:05.181Z,26.92
2018-01-10T20:53:32.660Z,26.10
2018-01-10T20:56:06.723Z,27.70
2018-01-10T20:58:34.310Z,26.10
2018-01-10T21:01:01.911Z,27.02
2018-01-10T21:03:29.624Z,26.17
2018-01-10T21:06:02.214Z,26.15
2018-01-10T21:08:33.366Z,27.90
2018-01-10T21:11:00.973Z,27.98
2018-01-10T21:13:28.595Z,26.52
2018-01-10T21:15:58.214Z,26.70
2018-01-10T21:18:25.864Z,26.95
2018-01-10T21:20:58.106Z,26.40
2018-01-10T21:23:25.679Z,25.00
2018-01-10T21:25:53.245Z,26.00
2018-01-10T21:28:20.778Z,26.05
2018-01-10T21:30:48.256Z,26.48
2018-01-10T21:33:15.746Z,25.90
2018-01-10T21:35:43.551Z,27.62
2018-01-10T21:38:13.634Z,28.00
2018-01-10T21:40:41.273Z,25.95
2018-01-10T21:43:08.851Z,25.98
2018-01-10T21:45:36.494Z,26.62
2018-01-10T21:48:05.371Z,26.95
2018-01-10T21:50:33.606Z,27.40
2018-01-10T21:53:01.253Z,26.35
2018-01-10T21:55:28.792Z,27.45
2018-01-10T21:57:57.438Z,28.23
2018-01-10T22:00:25.816Z,25.88
2018-01-10T22:02:53.358Z,26.67
2018-01-10T22:05:20.949Z,28.55
2018-01-10T22:07:49.341Z,30.17
2018-01-10T22:10:16.918Z,28.02
2018-01-10T22:12:44.472Z,29.75
2018-01-10T22:15:12.052Z,26.58
2018-01-10T22:17:41.560Z,27.83
2018-01-10T22:20:11.040Z,26.52
2018-01-10T22:22:38.633Z,27.17
2018-01-10T22:25:09.574Z,28.58
2018-01-10T22:27:37.473Z,27.42
2018-01-10T22:30:05.994Z,28.85
2018-01-10T22:32:35.515Z,29.00
2018-01-10T22:35:09.017Z,27.13
2018-01-10T22:37:36.916Z,28.50
2018-01-10T22:40:07.738Z,28.35
2018-01-10T22:42:41.758Z,25.62
2018-01-10T22:45:11.256Z,29.52
2018-01-10T22:48:05.066Z,30.48
2018-01-10T22:53:30.332Z,27.73
2018-01-10T22:55:58.318Z,28.80
2018-01-10T23:04:30.721Z,29.58
2018-01-10T23:06:58.380Z,29.90
2018-01-10T23:09:26.005Z,29.33
2018-01-10T23:11:53.598Z,29.90
2018-01-10T23:14:21.463Z,29.48
2018-01-10T23:16:49.105Z,26.58
2018-01-10T23:19:16.779Z,30.00
2018-01-10T23:21:45.586Z,28.80
2018-01-10T23:24:13.475Z,28.48
2018-01-10T23:26:46.558Z,28.35
2018-01-10T23:29:14.210Z,29.00
2018-01-10T23:31:45.917Z,28.00
2018-01-10T23:34:13.588Z,28.02
2018-01-10T23:36:42.398Z,28.35
2018-01-10T23:39:11.407Z,29.95
2018-01-10T23:41:39.982Z,26.50
2018-01-10T23:44:08.300Z,30.05
2018-01-10T23:46:37.020Z,27.33
2018-01-10T23:49:04.680Z,28.12
2018-01-10T23:51:32.249Z,28.52
2018-01-10T23:54:00.029Z,27.58
2018-01-10T23:56:27.899Z,27.77
2018-01-10T23:58:58.633Z,27.40
